sensor_id;sensor_type;location;lat;lon;timestamp;pressure;altitude;pressure_sealevel;temperature;humidity
11099;BME280;12223;42.650;23.364;2023-05-19T00:01:18;94889.84;;;12.52;100.00
11099;BME280;12223;42.650;23.364;2023-05-19T00:03:49;94890.53;;;12.47;100.00
11099;BME280;12223;42.650;23.364;2023-05-19T00:06:21;94897.81;;;12.52;100.00
11099;BME280;12223;42.650;23.364;2023-05-19T00:08:49;94898.63;;;12.53;100.00
11099;BME280;12223;42.650;23.364;2023-05-19T00:11:19;94895.16;;;12.52;100.00
11099;BME280;12223;42.650;23.364;2023-05-19T00:13:47;94885.50;;;12.58;100.00
11099;BME280;12223;42.650;23.364;2023-05-19T00:16:15;94890.22;;;12.56;100.00
11099;BME280;12223;42.650;23.364;2023-05-19T00:18:44;94897.38;;;12.67;100.00
11099;BME280;12223;42.650;23.364;2023-05-19T00:21:11;94878.69;;;12.50;100.00
11099;BME280;12223;42.650;23.364;2023-05-19T00:23:38;94885.13;;;12.42;100.00
11099;BME280;12223;42.650;23.364;2023-05-19T00:26:05;94880.88;;;12.41;100.00
11099;BME280;12223;42.650;23.364;2023-05-19T00:28:32;94883.50;;;12.41;100.00
11099;BME280;12223;42.650;23.364;2023-05-19T00:30:58;94875.94;;;12.45;100.00
11099;BME280;12223;42.650;23.364;2023-05-19T00:33:26;94874.97;;;12.39;100.00
11099;BME280;12223;42.650;23.364;2023-05-19T00:35:54;94880.06;;;12.41;100.00
11099;BME280;12223;42.650;23.364;2023-05-19T00:38:21;94883.28;;;12.31;100.00
11099;BME280;12223;42.650;23.364;2023-05-19T00:40:48;94882.47;;;12.31;100.00
11099;BME280;12223;42.650;23.364;2023-05-19T00:43:15;94876.34;;;12.30;100.00
11099;BME280;12223;42.650;23.364;2023-05-19T00:45:43;94869.13;;;12.37;100.00
11099;BME280;12223;42.650;23.364;2023-05-19T00:48:09;94864.63;;;12.26;100.00
11099;BME280;12223;42.650;23.364;2023-05-19T00:50:36;94874.25;;;12.21;100.00
11099;BME280;12223;42.650;23.364;2023-05-19T00:53:04;94863.53;;;12.16;100.00
11099;BME280;12223;42.650;23.364;2023-05-19T00:55:32;94869.84;;;12.15;100.00
11099;BME280;12223;42.650;23.364;2023-05-19T00:58:02;94867.81;;;12.28;100.00
11099;BME280;12223;42.650;23.364;2023-05-19T01:00:30;94871.88;;;12.31;100.00
11099;BME280;12223;42.650;23.364;2023-05-19T01:02:57;94869.44;;;12.29;100.00
11099;BME280;12223;42.650;23.364;2023-05-19T01:05:24;94871.13;;;12.12;100.00
11099;BME280;12223;42.650;23.364;2023-05-19T01:07:52;94877.16;;;12.19;100.00
11099;BME280;12223;42.650;23.364;2023-05-19T01:10:22;94864.56;;;12.15;100.00
11099;BME280;12223;42.650;23.364;2023-05-19T01:12:48;94865.53;;;12.20;100.00
11099;BME280;12223;42.650;23.364;2023-05-19T01:15:15;94871.69;;;12.14;100.00
11099;BME280;12223;42.650;23.364;2023-05-19T01:17:47;94876.22;;;12.14;100.00
11099;BME280;12223;42.650;23.364;2023-05-19T01:20:21;94876.16;;;12.02;100.00
11099;BME280;12223;42.650;23.364;2023-05-19T01:23:11;94864.38;;;11.86;100.00
11099;BME280;12223;42.650;23.364;2023-05-19T01:26:03;94858.06;;;11.87;100.00
11099;BME280;12223;42.650;23.364;2023-05-19T01:29:02;94851.75;;;11.88;100.00
11099;BME280;12223;42.650;23.364;2023-05-19T01:31:35;94854.22;;;11.83;100.00
11099;BME280;12223;42.650;23.364;2023-05-19T01:34:02;94846.84;;;11.74;100.00
11099;BME280;12223;42.650;23.364;2023-05-19T01:36:30;94841.81;;;11.84;100.00
11099;BME280;12223;42.650;23.364;2023-05-19T01:39:01;94841.69;;;11.79;100.00
11099;BME280;12223;42.650;23.364;2023-05-19T01:41:29;94852.25;;;11.79;100.00
11099;BME280;12223;42.650;23.364;2023-05-19T01:43:57;94843.53;;;11.60;100.00
11099;BME280;12223;42.650;23.364;2023-05-19T01:46:24;94828.13;;;11.57;100.00
11099;BME280;12223;42.650;23.364;2023-05-19T01:48:53;94827.03;;;11.46;100.00
11099;BME280;12223;42.650;23.364;2023-05-19T01:51:21;94822.41;;;11.42;100.00
11099;BME280;12223;42.650;23.364;2023-05-19T01:53:48;94823.56;;;11.46;100.00
11099;BME280;12223;42.650;23.364;2023-05-19T01:56:19;94831.19;;;11.54;100.00
11099;BME280;12223;42.650;23.364;2023-05-19T01:58:54;94821.16;;;11.44;100.00
11099;BME280;12223;42.650;23.364;2023-05-19T02:01:30;94815.53;;;11.52;100.00
11099;BME280;12223;42.650;23.364;2023-05-19T02:04:14;94827.44;;;11.61;100.00
11099;BME280;12223;42.650;23.364;2023-05-19T02:06:45;94827.44;;;11.61;100.00
11099;BME280;12223;42.650;23.364;2023-05-19T02:09:17;94836.28;;;11.55;100.00
11099;BME280;12223;42.650;23.364;2023-05-19T02:11:52;94824.88;;;11.55;100.00
11099;BME280;12223;42.650;23.364;2023-05-19T02:14:39;94832.59;;;11.38;100.00
11099;BME280;12223;42.650;23.364;2023-05-19T02:17:07;94828.44;;;11.31;100.00
11099;BME280;12223;42.650;23.364;2023-05-19T02:19:38;94822.03;;;11.38;100.00
11099;BME280;12223;42.650;23.364;2023-05-19T02:22:05;94822.63;;;11.40;100.00
11099;BME280;12223;42.650;23.364;2023-05-19T02:24:32;94827.69;;;11.42;100.00
11099;BME280;12223;42.650;23.364;2023-05-19T02:26:58;94812.34;;;11.32;100.00
11099;BME280;12223;42.650;23.364;2023-05-19T02:29:25;94820.28;;;11.32;100.00
11099;BME280;12223;42.650;23.364;2023-05-19T02:31:52;94831.16;;;11.42;100.00
11099;BME280;12223;42.650;23.364;2023-05-19T02:34:19;94832.13;;;11.29;100.00
11099;BME280;12223;42.650;23.364;2023-05-19T02:36:47;94825.00;;;11.30;100.00
11099;BME280;12223;42.650;23.364;2023-05-19T02:39:15;94820.81;;;11.22;100.00
11099;BME280;12223;42.650;23.364;2023-05-19T02:41:41;94820.22;;;11.20;100.00
11099;BME280;12223;42.650;23.364;2023-05-19T02:44:08;94818.38;;;11.21;100.00
11099;BME280;12223;42.650;23.364;2023-05-19T02:46:35;94824.41;;;11.28;100.00
11099;BME280;12223;42.650;23.364;2023-05-19T02:49:01;94813.69;;;11.23;100.00
11099;BME280;12223;42.650;23.364;2023-05-19T02:51:28;94815.88;;;11.26;100.00
11099;BME280;12223;42.650;23.364;2023-05-19T02:53:56;94824.53;;;11.33;100.00
11099;BME280;12223;42.650;23.364;2023-05-19T02:56:23;94820.59;;;11.24;100.00
11099;BME280;12223;42.650;23.364;2023-05-19T02:58:50;94822.66;;;11.22;100.00
11099;BME280;12223;42.650;23.364;2023-05-19T03:01:17;94826.38;;;11.14;100.00
11099;BME280;12223;42.650;23.364;2023-05-19T03:03:45;94817.72;;;11.25;100.00
11099;BME280;12223;42.650;23.364;2023-05-19T03:06:12;94824.06;;;11.24;100.00
11099;BME280;12223;42.650;23.364;2023-05-19T03:08:40;94823.00;;;11.25;100.00
11099;BME280;12223;42.650;23.364;2023-05-19T03:11:08;94831.75;;;11.26;100.00
11099;BME280;12223;42.650;23.364;2023-05-19T03:13:35;94839.84;;;11.31;100.00
11099;BME280;12223;42.650;23.364;2023-05-19T03:16:01;94836.59;;;11.29;100.00
11099;BME280;12223;42.650;23.364;2023-05-19T03:18:28;94839.66;;;11.26;100.00
11099;BME280;12223;42.650;23.364;2023-05-19T03:20:55;94840.66;;;11.32;100.00
11099;BME280;12223;42.650;23.364;2023-05-19T03:23:22;94833.19;;;11.40;100.00
11099;BME280;12223;42.650;23.364;2023-05-19T03:25:48;94838.09;;;11.55;100.00
11099;BME280;12223;42.650;23.364;2023-05-19T03:28:17;94859.31;;;11.85;100.00
11099;BME280;12223;42.650;23.364;2023-05-19T03:30:43;94880.94;;;12.23;100.00
11099;BME280;12223;42.650;23.364;2023-05-19T03:33:10;94891.25;;;12.43;100.00
11099;BME280;12223;42.650;23.364;2023-05-19T03:35:37;94905.78;;;12.64;100.00
11099;BME280;12223;42.650;23.364;2023-05-19T03:38:04;94923.56;;;12.86;100.00
11099;BME280;12223;42.650;23.364;2023-05-19T03:40:31;94933.75;;;13.13;100.00
11099;BME280;12223;42.650;23.364;2023-05-19T03:42:58;94939.50;;;13.45;100.00
11099;BME280;12223;42.650;23.364;2023-05-19T03:45:29;94946.72;;;13.61;100.00
11099;BME280;12223;42.650;23.364;2023-05-19T03:47:56;94959.63;;;13.69;100.00
11099;BME280;12223;42.650;23.364;2023-05-19T03:50:24;94957.44;;;13.78;100.00
11099;BME280;12223;42.650;23.364;2023-05-19T03:52:51;94953.69;;;14.02;100.00
11099;BME280;12223;42.650;23.364;2023-05-19T03:55:19;94969.38;;;14.32;100.00
11099;BME280;12223;42.650;23.364;2023-05-19T03:57:46;94968.56;;;15.21;100.00
11099;BME280;12223;42.650;23.364;2023-05-19T04:00:14;94976.63;;;15.82;100.00
11099;BME280;12223;42.650;23.364;2023-05-19T04:02:42;94981.50;;;16.82;100.00
11099;BME280;12223;42.650;23.364;2023-05-19T04:05:09;94984.78;;;16.89;100.00
11099;BME280;12223;42.650;23.364;2023-05-19T04:07:36;94987.06;;;16.54;100.00
11099;BME280;12223;42.650;23.364;2023-05-19T04:10:04;94984.13;;;16.28;100.00
11099;BME280;12223;42.650;23.364;2023-05-19T04:12:31;94987.72;;;16.17;100.00
11099;BME280;12223;42.650;23.364;2023-05-19T04:14:57;94991.44;;;16.60;100.00
11099;BME280;12223;42.650;23.364;2023-05-19T04:17:24;94991.41;;;17.13;100.00
11099;BME280;12223;42.650;23.364;2023-05-19T04:19:53;94993.41;;;17.65;100.00
11099;BME280;12223;42.650;23.364;2023-05-19T04:22:20;94991.59;;;16.53;100.00
11099;BME280;12223;42.650;23.364;2023-05-19T04:24:47;94998.06;;;17.11;100.00
11099;BME280;12223;42.650;23.364;2023-05-19T04:27:14;94996.19;;;17.11;100.00
11099;BME280;12223;42.650;23.364;2023-05-19T04:29:42;94994.78;;;16.77;100.00
11099;BME280;12223;42.650;23.364;2023-05-19T04:32:10;95003.03;;;17.02;100.00
11099;BME280;12223;42.650;23.364;2023-05-19T04:34:42;94998.00;;;17.70;100.00
11099;BME280;12223;42.650;23.364;2023-05-19T04:37:11;95010.09;;;18.44;100.00
11099;BME280;12223;42.650;23.364;2023-05-19T04:39:38;95002.81;;;19.33;88.63
11099;BME280;12223;42.650;23.364;2023-05-19T04:42:07;95011.66;;;19.79;80.37
11099;BME280;12223;42.650;23.364;2023-05-19T04:44:34;95014.22;;;20.83;74.00
11099;BME280;12223;42.650;23.364;2023-05-19T04:47:08;95001.28;;;21.97;62.29
11099;BME280;12223;42.650;23.364;2023-05-19T04:49:35;95010.91;;;22.03;60.12
11099;BME280;12223;42.650;23.364;2023-05-19T04:52:05;95009.44;;;21.58;63.96
11099;BME280;12223;42.650;23.364;2023-05-19T04:54:34;95006.03;;;22.77;59.02
11099;BME280;12223;42.650;23.364;2023-05-19T04:57:01;95005.75;;;22.07;58.09
11099;BME280;12223;42.650;23.364;2023-05-19T04:59:28;95014.25;;;22.19;59.69
11099;BME280;12223;42.650;23.364;2023-05-19T05:01:55;95019.59;;;21.95;57.85
11099;BME280;12223;42.650;23.364;2023-05-19T05:04:22;95007.91;;;21.08;62.51
11099;BME280;12223;42.650;23.364;2023-05-19T05:06:49;95017.25;;;21.55;61.52
11099;BME280;12223;42.650;23.364;2023-05-19T05:09:16;95016.22;;;22.32;57.39
11099;BME280;12223;42.650;23.364;2023-05-19T05:11:47;95018.50;;;23.48;53.68
11099;BME280;12223;42.650;23.364;2023-05-19T05:14:14;95011.50;;;24.25;50.57
11099;BME280;12223;42.650;23.364;2023-05-19T05:16:57;95012.56;;;25.06;46.77
11099;BME280;12223;42.650;23.364;2023-05-19T05:19:24;95013.47;;;26.05;43.91
11099;BME280;12223;42.650;23.364;2023-05-19T05:21:52;95011.47;;;26.58;42.73
11099;BME280;12223;42.650;23.364;2023-05-19T05:24:21;95012.44;;;27.36;39.98
11099;BME280;12223;42.650;23.364;2023-05-19T05:26:50;95001.75;;;27.66;38.50
11099;BME280;12223;42.650;23.364;2023-05-19T05:29:17;95007.91;;;25.43;42.14
11099;BME280;12223;42.650;23.364;2023-05-19T05:31:43;95018.59;;;25.26;43.45
11099;BME280;12223;42.650;23.364;2023-05-19T05:34:11;95009.25;;;25.09;43.45
11099;BME280;12223;42.650;23.364;2023-05-19T05:36:38;95028.97;;;24.14;45.70
11099;BME280;12223;42.650;23.364;2023-05-19T05:39:05;95016.50;;;22.78;49.13
11099;BME280;12223;42.650;23.364;2023-05-19T05:41:32;95018.53;;;22.20;51.77
11099;BME280;12223;42.650;23.364;2023-05-19T05:44:02;95007.59;;;21.83;56.12
11099;BME280;12223;42.650;23.364;2023-05-19T05:46:32;95021.16;;;20.40;60.29
11099;BME280;12223;42.650;23.364;2023-05-19T05:48:59;95026.00;;;20.18;66.54
11099;BME280;12223;42.650;23.364;2023-05-19T05:51:27;95021.84;;;19.56;69.96
11099;BME280;12223;42.650;23.364;2023-05-19T05:53:54;95017.94;;;18.61;77.87
11099;BME280;12223;42.650;23.364;2023-05-19T05:56:21;95034.44;;;18.48;82.42
11099;BME280;12223;42.650;23.364;2023-05-19T05:58:48;95031.59;;;18.07;84.88
11099;BME280;12223;42.650;23.364;2023-05-19T06:01:16;95037.72;;;17.61;94.19
11099;BME280;12223;42.650;23.364;2023-05-19T06:03:45;95042.53;;;17.00;100.00
11099;BME280;12223;42.650;23.364;2023-05-19T06:06:12;95045.78;;;17.39;100.00
11099;BME280;12223;42.650;23.364;2023-05-19T06:08:39;95024.28;;;16.92;100.00
11099;BME280;12223;42.650;23.364;2023-05-19T06:11:07;95030.41;;;17.51;100.00
11099;BME280;12223;42.650;23.364;2023-05-19T06:13:34;95046.94;;;17.16;100.00
11099;BME280;12223;42.650;23.364;2023-05-19T06:16:02;95049.81;;;16.83;100.00
11099;BME280;12223;42.650;23.364;2023-05-19T06:18:30;95051.00;;;17.56;100.00
11099;BME280;12223;42.650;23.364;2023-05-19T06:20:57;95026.25;;;18.07;100.00
11099;BME280;12223;42.650;23.364;2023-05-19T06:23:24;95037.00;;;18.80;95.76
11099;BME280;12223;42.650;23.364;2023-05-19T06:25:53;95045.13;;;19.41;88.40
11099;BME280;12223;42.650;23.364;2023-05-19T06:28:20;95041.13;;;19.79;82.48
11099;BME280;12223;42.650;23.364;2023-05-19T06:30:47;95045.09;;;20.06;78.41
11099;BME280;12223;42.650;23.364;2023-05-19T06:33:13;95048.34;;;19.48;76.59
11099;BME280;12223;42.650;23.364;2023-05-19T06:35:42;95042.16;;;19.37;77.86
11099;BME280;12223;42.650;23.364;2023-05-19T06:38:09;95050.41;;;18.95;78.78
11099;BME280;12223;42.650;23.364;2023-05-19T06:40:36;95034.41;;;19.15;81.56
11099;BME280;12223;42.650;23.364;2023-05-19T06:43:03;95050.19;;;19.37;77.57
11099;BME280;12223;42.650;23.364;2023-05-19T06:45:30;95056.09;;;19.44;79.42
11099;BME280;12223;42.650;23.364;2023-05-19T06:47:57;95051.03;;;19.63;76.46
11099;BME280;12223;42.650;23.364;2023-05-19T06:50:24;95049.16;;;19.63;69.74
11099;BME280;12223;42.650;23.364;2023-05-19T06:52:53;95052.63;;;19.54;69.80
11099;BME280;12223;42.650;23.364;2023-05-19T06:55:21;95049.41;;;19.67;69.92
11099;BME280;12223;42.650;23.364;2023-05-19T06:57:48;95058.25;;;19.93;68.46
11099;BME280;12223;42.650;23.364;2023-05-19T07:00:16;95056.31;;;20.29;64.95
11099;BME280;12223;42.650;23.364;2023-05-19T07:02:43;95058.59;;;20.71;62.52
11099;BME280;12223;42.650;23.364;2023-05-19T07:05:10;95033.03;;;20.83;61.07
11099;BME280;12223;42.650;23.364;2023-05-19T07:07:38;95052.88;;;21.37;58.55
11099;BME280;12223;42.650;23.364;2023-05-19T07:10:08;95058.03;;;21.28;58.42
11099;BME280;12223;42.650;23.364;2023-05-19T07:12:35;95061.22;;;20.86;63.02
11099;BME280;12223;42.650;23.364;2023-05-19T07:15:02;95065.38;;;20.53;64.71
11099;BME280;12223;42.650;23.364;2023-05-19T07:17:29;95065.09;;;20.55;62.94
11099;BME280;12223;42.650;23.364;2023-05-19T07:19:56;95075.19;;;20.78;62.15
11099;BME280;12223;42.650;23.364;2023-05-19T07:22:23;95065.91;;;21.09;61.39
11099;BME280;12223;42.650;23.364;2023-05-19T07:24:50;95070.56;;;21.43;61.56
11099;BME280;12223;42.650;23.364;2023-05-19T07:27:19;95062.53;;;21.72;59.85
11099;BME280;12223;42.650;23.364;2023-05-19T07:29:46;95071.38;;;21.43;59.04
11099;BME280;12223;42.650;23.364;2023-05-19T07:32:13;95068.28;;;20.67;59.69
11099;BME280;12223;42.650;23.364;2023-05-19T07:34:40;95065.44;;;20.23;63.22
11099;BME280;12223;42.650;23.364;2023-05-19T07:37:07;95061.16;;;20.12;65.61
11099;BME280;12223;42.650;23.364;2023-05-19T07:39:36;95062.19;;;20.26;66.36
11099;BME280;12223;42.650;23.364;2023-05-19T07:42:03;95066.56;;;19.96;63.41
11099;BME280;12223;42.650;23.364;2023-05-19T07:44:31;95072.72;;;19.82;64.44
11099;BME280;12223;42.650;23.364;2023-05-19T07:46:59;95069.22;;;20.01;64.58
11099;BME280;12223;42.650;23.364;2023-05-19T07:49:26;95065.94;;;20.30;65.07
11099;BME280;12223;42.650;23.364;2023-05-19T07:51:53;95064.91;;;20.16;64.86
11099;BME280;12223;42.650;23.364;2023-05-19T07:54:20;95068.94;;;20.08;63.21
11099;BME280;12223;42.650;23.364;2023-05-19T07:56:47;95059.84;;;20.04;63.27
11099;BME280;12223;42.650;23.364;2023-05-19T07:59:14;95064.06;;;20.40;63.74
11099;BME280;12223;42.650;23.364;2023-05-19T08:01:42;95066.59;;;20.81;62.81
11099;BME280;12223;42.650;23.364;2023-05-19T08:04:11;95061.13;;;20.42;62.16
11099;BME280;12223;42.650;23.364;2023-05-19T08:06:38;95068.06;;;20.43;65.47
11099;BME280;12223;42.650;23.364;2023-05-19T08:09:07;95055.22;;;20.25;66.76
11099;BME280;12223;42.650;23.364;2023-05-19T08:11:35;95058.53;;;19.76;69.29
11099;BME280;12223;42.650;23.364;2023-05-19T08:14:02;95063.09;;;19.50;69.15
11099;BME280;12223;42.650;23.364;2023-05-19T08:16:29;95052.34;;;19.25;71.48
11099;BME280;12223;42.650;23.364;2023-05-19T08:18:57;95054.19;;;19.14;71.08
11099;BME280;12223;42.650;23.364;2023-05-19T08:21:26;95060.06;;;19.11;75.13
11099;BME280;12223;42.650;23.364;2023-05-19T08:23:53;95061.63;;;18.77;75.75
11099;BME280;12223;42.650;23.364;2023-05-19T08:26:21;95053.84;;;18.70;81.21
11099;BME280;12223;42.650;23.364;2023-05-19T08:28:48;95063.00;;;18.95;78.62
11099;BME280;12223;42.650;23.364;2023-05-19T08:31:14;95051.97;;;18.81;74.93
11099;BME280;12223;42.650;23.364;2023-05-19T08:33:42;95054.66;;;18.91;77.84
11099;BME280;12223;42.650;23.364;2023-05-19T08:36:11;95063.78;;;18.90;79.06
11099;BME280;12223;42.650;23.364;2023-05-19T08:38:38;95050.63;;;18.73;78.50
11099;BME280;12223;42.650;23.364;2023-05-19T08:41:05;95060.56;;;18.83;81.73
11099;BME280;12223;42.650;23.364;2023-05-19T08:43:32;95054.97;;;19.10;82.27
11099;BME280;12223;42.650;23.364;2023-05-19T08:45:59;95069.16;;;18.90;78.82
11099;BME280;12223;42.650;23.364;2023-05-19T08:48:28;95057.91;;;18.88;77.48
11099;BME280;12223;42.650;23.364;2023-05-19T08:51:00;95060.31;;;18.90;77.30
11099;BME280;12223;42.650;23.364;2023-05-19T08:53:36;95058.44;;;19.00;79.21
11099;BME280;12223;42.650;23.364;2023-05-19T08:56:09;95058.44;;;19.00;81.72
11099;BME280;12223;42.650;23.364;2023-05-19T08:58:38;95048.81;;;18.99;76.57
11099;BME280;12223;42.650;23.364;2023-05-19T09:01:06;95055.53;;;19.17;75.83
11099;BME280;12223;42.650;23.364;2023-05-19T09:03:33;95048.88;;;19.40;77.14
11099;BME280;12223;42.650;23.364;2023-05-19T09:06:04;95049.91;;;19.18;75.45
11099;BME280;12223;42.650;23.364;2023-05-19T09:08:35;95053.94;;;19.41;75.02
11099;BME280;12223;42.650;23.364;2023-05-19T09:11:02;95048.59;;;19.26;74.82
11099;BME280;12223;42.650;23.364;2023-05-19T09:13:29;95047.25;;;19.18;76.53
11099;BME280;12223;42.650;23.364;2023-05-19T09:15:56;95037.38;;;19.49;77.24
11099;BME280;12223;42.650;23.364;2023-05-19T09:18:24;95044.84;;;19.93;74.47
11099;BME280;12223;42.650;23.364;2023-05-19T09:20:55;95032.44;;;20.22;73.00
11099;BME280;12223;42.650;23.364;2023-05-19T09:23:26;95037.31;;;20.00;68.72
11099;BME280;12223;42.650;23.364;2023-05-19T09:25:56;95038.69;;;19.97;68.94
11099;BME280;12223;42.650;23.364;2023-05-19T09:28:27;95034.34;;;20.12;69.29
11099;BME280;12223;42.650;23.364;2023-05-19T09:30:58;95031.19;;;19.74;69.02
11099;BME280;12223;42.650;23.364;2023-05-19T09:33:25;95026.63;;;19.90;70.53
11099;BME280;12223;42.650;23.364;2023-05-19T09:35:52;95031.44;;;19.93;70.87
11099;BME280;12223;42.650;23.364;2023-05-19T09:38:19;95029.03;;;19.96;73.64
11099;BME280;12223;42.650;23.364;2023-05-19T09:40:47;95039.41;;;20.18;68.04
11099;BME280;12223;42.650;23.364;2023-05-19T09:43:15;95031.09;;;20.25;67.02
11099;BME280;12223;42.650;23.364;2023-05-19T09:45:42;95033.59;;;19.91;68.65
11099;BME280;12223;42.650;23.364;2023-05-19T09:48:09;95025.03;;;19.89;72.25
11099;BME280;12223;42.650;23.364;2023-05-19T09:50:37;95026.34;;;19.96;68.78
11099;BME280;12223;42.650;23.364;2023-05-19T09:53:04;95019.84;;;20.18;68.26
11099;BME280;12223;42.650;23.364;2023-05-19T09:55:32;95023.03;;;20.40;67.69
11099;BME280;12223;42.650;23.364;2023-05-19T09:58:00;95013.59;;;20.53;63.85
11099;BME280;12223;42.650;23.364;2023-05-19T10:00:30;95015.03;;;20.84;63.76
11099;BME280;12223;42.650;23.364;2023-05-19T10:02:58;95001.03;;;20.92;64.17
11099;BME280;12223;42.650;23.364;2023-05-19T10:05:26;95010.25;;;20.76;62.09
11099;BME280;12223;42.650;23.364;2023-05-19T10:07:54;95010.19;;;20.86;62.56
11099;BME280;12223;42.650;23.364;2023-05-19T10:10:21;95016.56;;;20.95;63.19
11099;BME280;12223;42.650;23.364;2023-05-19T10:12:48;94999.50;;;20.76;64.65
11099;BME280;12223;42.650;23.364;2023-05-19T10:15:17;95004.72;;;21.01;63.50
11099;BME280;12223;42.650;23.364;2023-05-19T10:17:45;95002.81;;;21.07;63.13
11099;BME280;12223;42.650;23.364;2023-05-19T10:20:13;95004.34;;;21.23;60.09
11099;BME280;12223;42.650;23.364;2023-05-19T10:22:41;95002.47;;;21.18;60.46
11099;BME280;12223;42.650;23.364;2023-05-19T10:25:09;94990.63;;;21.24;61.88
11099;BME280;12223;42.650;23.364;2023-05-19T10:27:49;95009.56;;;21.04;58.14
11099;BME280;12223;42.650;23.364;2023-05-19T10:30:22;94991.59;;;20.95;55.84
11099;BME280;12223;42.650;23.364;2023-05-19T10:32:54;94990.22;;;21.02;56.26
11099;BME280;12223;42.650;23.364;2023-05-19T10:38:32;94987.75;;;21.45;59.58
11099;BME280;12223;42.650;23.364;2023-05-19T10:41:07;94991.31;;;21.40;54.43
11099;BME280;12223;42.650;23.364;2023-05-19T10:43:47;94988.28;;;21.08;56.81
11099;BME280;12223;42.650;23.364;2023-05-19T10:46:15;94981.09;;;21.03;56.44
11099;BME280;12223;42.650;23.364;2023-05-19T10:48:44;94985.94;;;21.40;54.94
11099;BME280;12223;42.650;23.364;2023-05-19T10:51:13;94977.88;;;21.69;54.28
11099;BME280;12223;42.650;23.364;2023-05-19T10:53:41;94980.53;;;21.74;51.89
11099;BME280;12223;42.650;23.364;2023-05-19T10:56:12;94972.50;;;21.98;55.79
11099;BME280;12223;42.650;23.364;2023-05-19T10:58:55;94967.31;;;22.30;56.44
11099;BME280;12223;42.650;23.364;2023-05-19T11:01:29;94966.38;;;22.40;53.10
11099;BME280;12223;42.650;23.364;2023-05-19T11:04:03;94974.81;;;21.81;49.03
11099;BME280;12223;42.650;23.364;2023-05-19T11:06:32;94970.66;;;21.93;49.33
11099;BME280;12223;42.650;23.364;2023-05-19T11:09:02;94976.81;;;22.23;49.87
11099;BME280;12223;42.650;23.364;2023-05-19T11:11:45;94966.03;;;22.65;47.53
11099;BME280;12223;42.650;23.364;2023-05-19T11:14:14;94962.88;;;23.01;47.50
11099;BME280;12223;42.650;23.364;2023-05-19T11:16:41;94969.03;;;23.39;46.70
11099;BME280;12223;42.650;23.364;2023-05-19T11:19:18;94969.63;;;23.17;47.51
11099;BME280;12223;42.650;23.364;2023-05-19T11:21:49;94966.72;;;23.32;45.47
11099;BME280;12223;42.650;23.364;2023-05-19T11:24:34;94959.66;;;22.99;46.92
11099;BME280;12223;42.650;23.364;2023-05-19T11:27:16;94957.25;;;22.97;47.48
11099;BME280;12223;42.650;23.364;2023-05-19T11:29:43;94962.81;;;22.21;48.29
11099;BME280;12223;42.650;23.364;2023-05-19T11:32:13;94962.28;;;22.24;48.12
11099;BME280;12223;42.650;23.364;2023-05-19T11:34:42;94962.47;;;22.27;48.36
11099;BME280;12223;42.650;23.364;2023-05-19T11:37:10;94951.81;;;22.41;47.58
11099;BME280;12223;42.650;23.364;2023-05-19T11:39:38;94963.56;;;22.26;48.69
11099;BME280;12223;42.650;23.364;2023-05-19T11:42:05;94993.34;;;21.19;65.71
11099;BME280;12223;42.650;23.364;2023-05-19T11:44:34;95034.41;;;17.86;100.00
11099;BME280;12223;42.650;23.364;2023-05-19T11:47:01;95011.75;;;16.00;100.00
11099;BME280;12223;42.650;23.364;2023-05-19T11:49:28;95007.53;;;15.49;100.00
11099;BME280;12223;42.650;23.364;2023-05-19T11:51:58;94942.56;;;15.45;100.00
11099;BME280;12223;42.650;23.364;2023-05-19T11:54:29;94798.47;;;15.58;100.00
11099;BME280;12223;42.650;23.364;2023-05-19T11:56:56;94712.34;;;15.69;100.00
11099;BME280;12223;42.650;23.364;2023-05-19T11:59:29;94726.41;;;15.92;100.00
11099;BME280;12223;42.650;23.364;2023-05-19T12:02:00;94795.72;;;16.02;100.00
11099;BME280;12223;42.650;23.364;2023-05-19T12:04:29;94890.00;;;16.01;100.00
11099;BME280;12223;42.650;23.364;2023-05-19T12:06:58;94959.94;;;15.69;100.00
11099;BME280;12223;42.650;23.364;2023-05-19T12:09:27;94930.13;;;15.67;100.00
11099;BME280;12223;42.650;23.364;2023-05-19T12:11:54;94975.47;;;15.39;100.00
11099;BME280;12223;42.650;23.364;2023-05-19T12:14:22;94992.09;;;15.29;100.00
11099;BME280;12223;42.650;23.364;2023-05-19T12:16:49;94956.44;;;15.30;100.00
11099;BME280;12223;42.650;23.364;2023-05-19T12:19:17;94976.03;;;15.41;100.00
11099;BME280;12223;42.650;23.364;2023-05-19T12:21:45;94942.63;;;15.50;100.00
11099;BME280;12223;42.650;23.364;2023-05-19T12:24:18;94948.06;;;15.55;100.00
11099;BME280;12223;42.650;23.364;2023-05-19T12:27:04;94964.78;;;15.73;100.00
11099;BME280;12223;42.650;23.364;2023-05-19T12:29:31;94966.16;;;15.97;100.00
11099;BME280;12223;42.650;23.364;2023-05-19T12:32:00;94986.78;;;16.06;100.00
11099;BME280;12223;42.650;23.364;2023-05-19T12:34:27;94991.69;;;16.15;100.00
11099;BME280;12223;42.650;23.364;2023-05-19T12:36:54;94992.69;;;16.30;100.00
11099;BME280;12223;42.650;23.364;2023-05-19T12:39:23;94965.72;;;16.27;100.00
11099;BME280;12223;42.650;23.364;2023-05-19T12:41:50;94972.75;;;16.60;100.00
11099;BME280;12223;42.650;23.364;2023-05-19T12:44:17;94979.50;;;16.94;100.00
11099;BME280;12223;42.650;23.364;2023-05-19T12:46:45;94974.63;;;17.18;100.00
11099;BME280;12223;42.650;23.364;2023-05-19T12:49:12;94964.34;;;17.37;100.00
11099;BME280;12223;42.650;23.364;2023-05-19T12:51:39;94986.09;;;17.50;100.00
11099;BME280;12223;42.650;23.364;2023-05-19T12:54:07;94956.94;;;17.44;100.00
11099;BME280;12223;42.650;23.364;2023-05-19T12:56:36;94976.09;;;17.73;100.00